sensor_id;sensor_type;location;lat;lon;timestamp;temperature;humidity
67777;DHT22;54576;52.020;5.536;2023-02-28T00:00:24;-0.50;80.30
67777;DHT22;54576;52.020;5.536;2023-02-28T00:02:50;-0.50;80.10
67777;DHT22;54576;52.020;5.536;2023-02-28T00:05:21;-0.50;80.20
67777;DHT22;54576;52.020;5.536;2023-02-28T00:07:48;-0.50;79.80
67777;DHT22;54576;52.020;5.536;2023-02-28T00:12:49;-0.50;80.50
67777;DHT22;54576;52.020;5.536;2023-02-28T00:15:16;-0.40;80.60
67777;DHT22;54576;52.020;5.536;2023-02-28T00:17:41;-0.40;80.80
67777;DHT22;54576;52.020;5.536;2023-02-28T00:20:08;-0.40;80.60
67777;DHT22;54576;52.020;5.536;2023-02-28T00:22:36;-0.30;79.60
67777;DHT22;54576;52.020;5.536;2023-02-28T00:25:03;-0.30;79.40
67777;DHT22;54576;52.020;5.536;2023-02-28T00:27:29;-0.20;79.30
67777;DHT22;54576;52.020;5.536;2023-02-28T00:29:54;-0.10;79.40
67777;DHT22;54576;52.020;5.536;2023-02-28T00:32:20;-0.10;79.90
67777;DHT22;54576;52.020;5.536;2023-02-28T00:34:46;-0.10;80.30
67777;DHT22;54576;52.020;5.536;2023-02-28T00:37:11;0.00;80.10
67777;DHT22;54576;52.020;5.536;2023-02-28T00:39:38;0.00;80.40
67777;DHT22;54576;52.020;5.536;2023-02-28T00:42:05;0.00;80.10
67777;DHT22;54576;52.020;5.536;2023-02-28T00:44:32;0.10;79.60
67777;DHT22;54576;52.020;5.536;2023-02-28T00:46:58;0.10;82.10
67777;DHT22;54576;52.020;5.536;2023-02-28T00:49:25;0.10;82.80
67777;DHT22;54576;52.020;5.536;2023-02-28T00:51:51;0.10;81.00
67777;DHT22;54576;52.020;5.536;2023-02-28T00:54:18;0.20;80.90
67777;DHT22;54576;52.020;5.536;2023-02-28T00:56:45;0.20;81.10
67777;DHT22;54576;52.020;5.536;2023-02-28T00:59:12;0.20;81.20
67777;DHT22;54576;52.020;5.536;2023-02-28T01:01:38;0.30;81.10
67777;DHT22;54576;52.020;5.536;2023-02-28T01:04:03;0.30;80.40
67777;DHT22;54576;52.020;5.536;2023-02-28T01:06:30;0.30;80.30
67777;DHT22;54576;52.020;5.536;2023-02-28T01:08:57;0.30;81.10
67777;DHT22;54576;52.020;5.536;2023-02-28T01:11:22;0.30;80.10
67777;DHT22;54576;52.020;5.536;2023-02-28T01:13:48;0.40;80.60
67777;DHT22;54576;52.020;5.536;2023-02-28T01:16:15;0.40;80.50
67777;DHT22;54576;52.020;5.536;2023-02-28T01:18:40;0.40;80.80
67777;DHT22;54576;52.020;5.536;2023-02-28T01:21:08;0.40;80.70
67777;DHT22;54576;52.020;5.536;2023-02-28T01:23:35;0.40;80.80
67777;DHT22;54576;52.020;5.536;2023-02-28T01:26:08;0.40;80.70
67777;DHT22;54576;52.020;5.536;2023-02-28T01:28:38;0.40;81.10
67777;DHT22;54576;52.020;5.536;2023-02-28T01:31:04;0.40;81.00
67777;DHT22;54576;52.020;5.536;2023-02-28T01:33:29;0.40;80.70
67777;DHT22;54576;52.020;5.536;2023-02-28T01:36:04;0.50;80.60
67777;DHT22;54576;52.020;5.536;2023-02-28T01:38:30;0.50;81.00
67777;DHT22;54576;52.020;5.536;2023-02-28T01:40:57;0.60;80.00
67777;DHT22;54576;52.020;5.536;2023-02-28T01:43:29;0.60;80.30
67777;DHT22;54576;52.020;5.536;2023-02-28T01:45:56;0.70;80.60
67777;DHT22;54576;52.020;5.536;2023-02-28T01:48:30;0.70;80.80
67777;DHT22;54576;52.020;5.536;2023-02-28T01:51:01;0.70;81.20
67777;DHT22;54576;52.020;5.536;2023-02-28T01:53:53;0.80;81.20
67777;DHT22;54576;52.020;5.536;2023-02-28T01:56:24;0.80;81.60
67777;DHT22;54576;52.020;5.536;2023-02-28T01:58:52;0.70;80.90
67777;DHT22;54576;52.020;5.536;2023-02-28T02:01:19;0.70;81.80
67777;DHT22;54576;52.020;5.536;2023-02-28T02:03:50;0.70;81.30
67777;DHT22;54576;52.020;5.536;2023-02-28T02:06:25;0.80;80.80
67777;DHT22;54576;52.020;5.536;2023-02-28T02:08:52;0.80;80.70
67777;DHT22;54576;52.020;5.536;2023-02-28T02:11:21;0.90;81.20
67777;DHT22;54576;52.020;5.536;2023-02-28T02:14:17;0.90;81.60
67777;DHT22;54576;52.020;5.536;2023-02-28T02:20:00;1.00;81.50
67777;DHT22;54576;52.020;5.536;2023-02-28T02:25:19;1.00;81.00
67777;DHT22;54576;52.020;5.536;2023-02-28T02:36:21;1.20;81.70
67777;DHT22;54576;52.020;5.536;2023-02-28T02:39:44;1.20;81.90
67777;DHT22;54576;52.020;5.536;2023-02-28T02:42:01;1.20;82.00
67777;DHT22;54576;52.020;5.536;2023-02-28T02:44:38;1.20;81.00
67777;DHT22;54576;52.020;5.536;2023-02-28T02:47:10;1.30;81.40
67777;DHT22;54576;52.020;5.536;2023-02-28T02:49:39;1.30;80.90
67777;DHT22;54576;52.020;5.536;2023-02-28T02:52:08;1.30;80.40
67777;DHT22;54576;52.020;5.536;2023-02-28T02:54:38;1.30;80.20
67777;DHT22;54576;52.020;5.536;2023-02-28T02:57:10;1.30;81.30
67777;DHT22;54576;52.020;5.536;2023-02-28T02:59:39;1.30;85.80
67777;DHT22;54576;52.020;5.536;2023-02-28T03:02:08;1.30;81.40
67777;DHT22;54576;52.020;5.536;2023-02-28T03:04:46;1.40;81.40
67777;DHT22;54576;52.020;5.536;2023-02-28T03:07:16;1.40;81.20
67777;DHT22;54576;52.020;5.536;2023-02-28T03:09:51;1.40;81.40
67777;DHT22;54576;52.020;5.536;2023-02-28T03:12:18;1.40;81.00
67777;DHT22;54576;52.020;5.536;2023-02-28T03:15:07;1.40;82.10
67777;DHT22;54576;52.020;5.536;2023-02-28T03:18:08;1.40;81.40
67777;DHT22;54576;52.020;5.536;2023-02-28T03:23:20;1.40;81.40
67777;DHT22;54576;52.020;5.536;2023-02-28T03:25:59;1.40;81.40
67777;DHT22;54576;52.020;5.536;2023-02-28T03:31:26;1.50;81.80
67777;DHT22;54576;52.020;5.536;2023-02-28T03:34:12;1.50;81.80
67777;DHT22;54576;52.020;5.536;2023-02-28T03:36:51;1.50;81.80
67777;DHT22;54576;52.020;5.536;2023-02-28T03:39:27;1.50;82.10
67777;DHT22;54576;52.020;5.536;2023-02-28T03:42:15;1.50;82.30
67777;DHT22;54576;52.020;5.536;2023-02-28T03:44:47;1.50;82.90
67777;DHT22;54576;52.020;5.536;2023-02-28T03:47:23;1.50;82.50
67777;DHT22;54576;52.020;5.536;2023-02-28T03:49:59;1.50;82.20
67777;DHT22;54576;52.020;5.536;2023-02-28T03:52:31;1.50;81.90
67777;DHT22;54576;52.020;5.536;2023-02-28T03:55:02;1.50;82.10
67777;DHT22;54576;52.020;5.536;2023-02-28T03:57:45;1.50;81.90
67777;DHT22;54576;52.020;5.536;2023-02-28T04:00:21;1.60;82.00
67777;DHT22;54576;52.020;5.536;2023-02-28T04:02:50;1.50;81.70
67777;DHT22;54576;52.020;5.536;2023-02-28T04:05:19;1.60;81.50
67777;DHT22;54576;52.020;5.536;2023-02-28T04:07:45;1.60;81.60
67777;DHT22;54576;52.020;5.536;2023-02-28T04:10:11;1.70;81.10
67777;DHT22;54576;52.020;5.536;2023-02-28T04:12:38;1.70;80.80
67777;DHT22;54576;52.020;5.536;2023-02-28T04:15:05;1.80;80.50
67777;DHT22;54576;52.020;5.536;2023-02-28T04:17:31;1.80;80.80
67777;DHT22;54576;52.020;5.536;2023-02-28T04:19:56;1.90;80.40
67777;DHT22;54576;52.020;5.536;2023-02-28T04:22:23;1.90;80.40
67777;DHT22;54576;52.020;5.536;2023-02-28T04:24:51;2.00;80.20
67777;DHT22;54576;52.020;5.536;2023-02-28T04:27:19;2.00;81.00
67777;DHT22;54576;52.020;5.536;2023-02-28T04:29:45;2.00;80.10
67777;DHT22;54576;52.020;5.536;2023-02-28T04:32:10;2.00;80.00
67777;DHT22;54576;52.020;5.536;2023-02-28T04:34:36;2.00;80.10
67777;DHT22;54576;52.020;5.536;2023-02-28T04:37:02;2.00;80.20
67777;DHT22;54576;52.020;5.536;2023-02-28T04:39:28;2.00;80.10
67777;DHT22;54576;52.020;5.536;2023-02-28T04:41:55;2.00;80.20
67777;DHT22;54576;52.020;5.536;2023-02-28T04:44:22;2.00;79.90
67777;DHT22;54576;52.020;5.536;2023-02-28T04:46:50;2.00;79.70
67777;DHT22;54576;52.020;5.536;2023-02-28T04:49:16;2.00;79.90
67777;DHT22;54576;52.020;5.536;2023-02-28T04:51:41;2.00;79.20
67777;DHT22;54576;52.020;5.536;2023-02-28T04:54:07;2.00;79.60
67777;DHT22;54576;52.020;5.536;2023-02-28T04:56:33;2.00;79.70
67777;DHT22;54576;52.020;5.536;2023-02-28T04:58:59;2.00;79.80
67777;DHT22;54576;52.020;5.536;2023-02-28T05:01:34;2.10;79.80
67777;DHT22;54576;52.020;5.536;2023-02-28T05:04:02;2.10;79.90
67777;DHT22;54576;52.020;5.536;2023-02-28T05:06:31;2.10;80.00
67777;DHT22;54576;52.020;5.536;2023-02-28T05:08:58;2.10;79.20
67777;DHT22;54576;52.020;5.536;2023-02-28T05:11:26;2.10;79.50
67777;DHT22;54576;52.020;5.536;2023-02-28T05:13:54;2.10;79.30
67777;DHT22;54576;52.020;5.536;2023-02-28T05:16:20;2.10;79.70
67777;DHT22;54576;52.020;5.536;2023-02-28T05:18:47;2.10;79.90
67777;DHT22;54576;52.020;5.536;2023-02-28T05:21:32;2.20;79.90
67777;DHT22;54576;52.020;5.536;2023-02-28T05:24:00;2.20;80.30
67777;DHT22;54576;52.020;5.536;2023-02-28T05:26:26;2.20;81.00
67777;DHT22;54576;52.020;5.536;2023-02-28T05:28:53;2.10;83.20
67777;DHT22;54576;52.020;5.536;2023-02-28T05:31:19;2.10;82.60
67777;DHT22;54576;52.020;5.536;2023-02-28T05:33:45;2.10;81.80
67777;DHT22;54576;52.020;5.536;2023-02-28T05:36:10;2.10;80.90
67777;DHT22;54576;52.020;5.536;2023-02-28T05:38:36;2.10;80.80
67777;DHT22;54576;52.020;5.536;2023-02-28T05:41:06;2.10;80.70
67777;DHT22;54576;52.020;5.536;2023-02-28T05:43:32;2.10;80.40
67777;DHT22;54576;52.020;5.536;2023-02-28T05:45:57;2.10;80.70
67777;DHT22;54576;52.020;5.536;2023-02-28T05:48:23;2.10;80.60
67777;DHT22;54576;52.020;5.536;2023-02-28T05:50:48;2.10;80.60
67777;DHT22;54576;52.020;5.536;2023-02-28T05:53:14;2.10;80.80
67777;DHT22;54576;52.020;5.536;2023-02-28T05:55:39;2.10;81.90
67777;DHT22;54576;52.020;5.536;2023-02-28T05:58:06;2.10;82.40
67777;DHT22;54576;52.020;5.536;2023-02-28T06:00:32;2.10;82.50
67777;DHT22;54576;52.020;5.536;2023-02-28T06:02:57;2.00;82.40
67777;DHT22;54576;52.020;5.536;2023-02-28T06:05:27;2.00;82.90
67777;DHT22;54576;52.020;5.536;2023-02-28T06:07:53;2.00;84.30
67777;DHT22;54576;52.020;5.536;2023-02-28T06:10:18;2.00;82.00
67777;DHT22;54576;52.020;5.536;2023-02-28T06:12:44;2.00;81.50
67777;DHT22;54576;52.020;5.536;2023-02-28T06:15:12;2.00;81.60
67777;DHT22;54576;52.020;5.536;2023-02-28T06:17:39;2.00;81.70
67777;DHT22;54576;52.020;5.536;2023-02-28T06:20:05;2.00;81.90
67777;DHT22;54576;52.020;5.536;2023-02-28T06:22:31;2.00;82.20
67777;DHT22;54576;52.020;5.536;2023-02-28T06:24:57;2.00;82.00
67777;DHT22;54576;52.020;5.536;2023-02-28T06:27:25;2.10;81.70
67777;DHT22;54576;52.020;5.536;2023-02-28T06:29:54;2.10;82.20
67777;DHT22;54576;52.020;5.536;2023-02-28T06:32:21;2.10;82.10
67777;DHT22;54576;52.020;5.536;2023-02-28T06:34:46;2.10;82.50
67777;DHT22;54576;52.020;5.536;2023-02-28T06:37:12;2.00;82.80
67777;DHT22;54576;52.020;5.536;2023-02-28T06:39:38;2.00;83.10
67777;DHT22;54576;52.020;5.536;2023-02-28T06:42:04;2.00;82.90
67777;DHT22;54576;52.020;5.536;2023-02-28T06:44:29;2.00;82.00
67777;DHT22;54576;52.020;5.536;2023-02-28T06:47:01;2.00;82.00
67777;DHT22;54576;52.020;5.536;2023-02-28T06:49:29;2.10;82.70
67777;DHT22;54576;52.020;5.536;2023-02-28T06:51:55;2.10;82.50
67777;DHT22;54576;52.020;5.536;2023-02-28T06:54:21;2.10;82.80
67777;DHT22;54576;52.020;5.536;2023-02-28T06:56:48;2.10;83.00
67777;DHT22;54576;52.020;5.536;2023-02-28T06:59:14;2.10;82.70
67777;DHT22;54576;52.020;5.536;2023-02-28T07:01:40;2.10;82.50
67777;DHT22;54576;52.020;5.536;2023-02-28T07:04:06;2.10;82.70
67777;DHT22;54576;52.020;5.536;2023-02-28T07:06:32;2.10;83.10
67777;DHT22;54576;52.020;5.536;2023-02-28T07:09:01;2.10;82.60
67777;DHT22;54576;52.020;5.536;2023-02-28T07:11:28;2.10;82.50
67777;DHT22;54576;52.020;5.536;2023-02-28T07:13:54;2.10;82.60
67777;DHT22;54576;52.020;5.536;2023-02-28T07:16:21;2.10;82.80
67777;DHT22;54576;52.020;5.536;2023-02-28T07:18:47;2.20;82.80
67777;DHT22;54576;52.020;5.536;2023-02-28T07:21:13;2.20;83.00
67777;DHT22;54576;52.020;5.536;2023-02-28T07:23:42;2.30;83.00
67777;DHT22;54576;52.020;5.536;2023-02-28T07:26:13;2.30;83.10
67777;DHT22;54576;52.020;5.536;2023-02-28T07:28:43;2.40;82.90
67777;DHT22;54576;52.020;5.536;2023-02-28T07:31:09;2.40;83.30
67777;DHT22;54576;52.020;5.536;2023-02-28T07:33:35;2.50;83.40
67777;DHT22;54576;52.020;5.536;2023-02-28T07:36:06;2.50;82.60
67777;DHT22;54576;52.020;5.536;2023-02-28T07:38:36;2.60;83.10
67777;DHT22;54576;52.020;5.536;2023-02-28T07:41:03;2.60;83.90
67777;DHT22;54576;52.020;5.536;2023-02-28T07:43:32;2.70;83.60
67777;DHT22;54576;52.020;5.536;2023-02-28T07:46:09;2.70;83.10
67777;DHT22;54576;52.020;5.536;2023-02-28T07:48:35;2.80;82.60
67777;DHT22;54576;52.020;5.536;2023-02-28T07:51:01;2.80;82.60
67777;DHT22;54576;52.020;5.536;2023-02-28T07:53:28;2.90;83.20
67777;DHT22;54576;52.020;5.536;2023-02-28T07:55:58;3.00;82.30
67777;DHT22;54576;52.020;5.536;2023-02-28T07:58:24;3.00;81.00
67777;DHT22;54576;52.020;5.536;2023-02-28T08:00:50;3.00;80.90
67777;DHT22;54576;52.020;5.536;2023-02-28T08:03:17;3.10;81.60
67777;DHT22;54576;52.020;5.536;2023-02-28T08:05:43;3.20;81.10
67777;DHT22;54576;52.020;5.536;2023-02-28T08:08:09;3.20;80.80
67777;DHT22;54576;52.020;5.536;2023-02-28T08:10:36;3.20;80.50
67777;DHT22;54576;52.020;5.536;2023-02-28T08:13:01;3.20;80.30
67777;DHT22;54576;52.020;5.536;2023-02-28T08:15:27;3.20;80.10
67777;DHT22;54576;52.020;5.536;2023-02-28T08:17:52;3.30;79.90
67777;DHT22;54576;52.020;5.536;2023-02-28T08:20:18;3.30;79.90
67777;DHT22;54576;52.020;5.536;2023-02-28T08:22:44;3.30;79.90
67777;DHT22;54576;52.020;5.536;2023-02-28T08:25:10;3.40;79.30
67777;DHT22;54576;52.020;5.536;2023-02-28T08:27:36;3.40;78.60
67777;DHT22;54576;52.020;5.536;2023-02-28T08:30:02;3.40;78.40
67777;DHT22;54576;52.020;5.536;2023-02-28T08:32:28;3.50;78.30
67777;DHT22;54576;52.020;5.536;2023-02-28T08:34:54;3.60;77.90
67777;DHT22;54576;52.020;5.536;2023-02-28T08:37:19;3.80;99.90
67777;DHT22;54576;52.020;5.536;2023-02-28T08:39:45;3.80;77.50
67777;DHT22;54576;52.020;5.536;2023-02-28T08:42:11;4.00;76.80
67777;DHT22;54576;52.020;5.536;2023-02-28T08:44:36;4.10;76.40
67777;DHT22;54576;52.020;5.536;2023-02-28T08:47:02;4.30;76.20
67777;DHT22;54576;52.020;5.536;2023-02-28T08:49:27;4.30;75.40
67777;DHT22;54576;52.020;5.536;2023-02-28T08:51:53;4.40;78.20
67777;DHT22;54576;52.020;5.536;2023-02-28T08:54:20;4.50;74.50
67777;DHT22;54576;52.020;5.536;2023-02-28T08:56:46;4.60;72.80
67777;DHT22;54576;52.020;5.536;2023-02-28T08:59:13;4.60;73.00
67777;DHT22;54576;52.020;5.536;2023-02-28T09:01:38;4.70;72.40
67777;DHT22;54576;52.020;5.536;2023-02-28T09:04:04;4.80;76.50
67777;DHT22;54576;52.020;5.536;2023-02-28T09:06:32;5.00;78.60
67777;DHT22;54576;52.020;5.536;2023-02-28T09:26:05;5.10;68.50
67777;DHT22;54576;52.020;5.536;2023-02-28T09:28:31;5.30;69.20
67777;DHT22;54576;52.020;5.536;2023-02-28T09:30:56;5.10;69.10
67777;DHT22;54576;52.020;5.536;2023-02-28T09:33:26;5.10;68.60
67777;DHT22;54576;52.020;5.536;2023-02-28T09:36:00;5.10;70.00
67777;DHT22;54576;52.020;5.536;2023-02-28T09:38:26;5.20;70.70
67777;DHT22;54576;52.020;5.536;2023-02-28T09:40:56;5.30;67.30
67777;DHT22;54576;52.020;5.536;2023-02-28T09:43:26;5.40;68.00
67777;DHT22;54576;52.020;5.536;2023-02-28T09:48:34;5.50;65.50
67777;DHT22;54576;52.020;5.536;2023-02-28T09:51:09;5.50;64.20
67777;DHT22;54576;52.020;5.536;2023-02-28T09:53:39;5.40;65.80
67777;DHT22;54576;52.020;5.536;2023-02-28T09:56:07;5.50;66.70
67777;DHT22;54576;52.020;5.536;2023-02-28T09:59:30;5.40;66.30
67777;DHT22;54576;52.020;5.536;2023-02-28T10:04:34;5.30;66.60
67777;DHT22;54576;52.020;5.536;2023-02-28T10:07:07;5.20;66.60
67777;DHT22;54576;52.020;5.536;2023-02-28T10:09:43;5.20;63.90
67777;DHT22;54576;52.020;5.536;2023-02-28T10:12:11;5.20;66.10
67777;DHT22;54576;52.020;5.536;2023-02-28T10:14:39;5.20;66.10
67777;DHT22;54576;52.020;5.536;2023-02-28T10:20:05;5.30;65.20
67777;DHT22;54576;52.020;5.536;2023-02-28T10:22:52;5.30;64.70
67777;DHT22;54576;52.020;5.536;2023-02-28T10:25:25;5.30;65.90
67777;DHT22;54576;52.020;5.536;2023-02-28T10:28:11;5.30;67.00
67777;DHT22;54576;52.020;5.536;2023-02-28T10:30:43;5.40;66.80
67777;DHT22;54576;52.020;5.536;2023-02-28T10:33:27;5.40;70.40
67777;DHT22;54576;52.020;5.536;2023-02-28T10:35:53;5.40;64.40
67777;DHT22;54576;52.020;5.536;2023-02-28T10:38:40;5.30;65.50
67777;DHT22;54576;52.020;5.536;2023-02-28T10:41:12;5.30;63.70
67777;DHT22;54576;52.020;5.536;2023-02-28T10:43:40;5.40;65.80
67777;DHT22;54576;52.020;5.536;2023-02-28T10:51:16;5.50;66.30
67777;DHT22;54576;52.020;5.536;2023-02-28T10:56:15;5.60;63.00
67777;DHT22;54576;52.020;5.536;2023-02-28T10:59:01;5.70;65.30
67777;DHT22;54576;52.020;5.536;2023-02-28T11:03:56;5.90;88.20
67777;DHT22;54576;52.020;5.536;2023-02-28T11:06:33;5.90;68.40
67777;DHT22;54576;52.020;5.536;2023-02-28T11:09:04;5.90;66.20
67777;DHT22;54576;52.020;5.536;2023-02-28T11:11:44;6.00;65.50
67777;DHT22;54576;52.020;5.536;2023-02-28T11:16:45;6.00;64.20
67777;DHT22;54576;52.020;5.536;2023-02-28T11:19:25;5.90;64.40
67777;DHT22;54576;52.020;5.536;2023-02-28T11:22:00;5.90;65.00
67777;DHT22;54576;52.020;5.536;2023-02-28T11:24:41;5.90;63.80
67777;DHT22;54576;52.020;5.536;2023-02-28T11:29:50;6.10;99.90
67777;DHT22;54576;52.020;5.536;2023-02-28T11:32:20;6.00;64.40
67777;DHT22;54576;52.020;5.536;2023-02-28T11:35:17;6.20;93.70
67777;DHT22;54576;52.020;5.536;2023-02-28T11:43:23;6.20;92.60
67777;DHT22;54576;52.020;5.536;2023-02-28T11:46:05;6.20;68.50
67777;DHT22;54576;52.020;5.536;2023-02-28T11:54:26;6.10;63.90
67777;DHT22;54576;52.020;5.536;2023-02-28T11:56:58;6.20;63.40
67777;DHT22;54576;52.020;5.536;2023-02-28T12:05:14;6.50;94.60
67777;DHT22;54576;52.020;5.536;2023-02-28T12:10:22;6.40;62.70
67777;DHT22;54576;52.020;5.536;2023-02-28T12:12:55;6.40;61.00
67777;DHT22;54576;52.020;5.536;2023-02-28T12:15:53;6.40;62.50
67777;DHT22;54576;52.020;5.536;2023-02-28T12:18:48;6.40;63.20
67777;DHT22;54576;52.020;5.536;2023-02-28T12:21:33;6.50;60.50
67777;DHT22;54576;52.020;5.536;2023-02-28T12:24:07;6.60;62.20
67777;DHT22;54576;52.020;5.536;2023-02-28T12:26:45;6.60;62.70
67777;DHT22;54576;52.020;5.536;2023-02-28T12:29:29;6.70;63.00
67777;DHT22;54576;52.020;5.536;2023-02-28T12:32:01;6.70;62.10
67777;DHT22;54576;52.020;5.536;2023-02-28T12:34:36;6.70;63.20
67777;DHT22;54576;52.020;5.536;2023-02-28T12:37:14;6.80;62.20
67777;DHT22;54576;52.020;5.536;2023-02-28T12:39:48;6.80;62.60
67777;DHT22;54576;52.020;5.536;2023-02-28T12:42:28;6.80;61.60
67777;DHT22;54576;52.020;5.536;2023-02-28T12:45:17;6.80;62.40
67777;DHT22;54576;52.020;5.536;2023-02-28T12:47:45;6.70;60.30
67777;DHT22;54576;52.020;5.536;2023-02-28T12:50:12;6.60;59.90
67777;DHT22;54576;52.020;5.536;2023-02-28T12:52:56;6.60;60.90
67777;DHT22;54576;52.020;5.536;2023-02-28T12:55:30;6.60;62.00
67777;DHT22;54576;52.020;5.536;2023-02-28T13:09:11;6.70;59.50
67777;DHT22;54576;52.020;5.536;2023-02-28T13:11:51;6.80;62.10
67777;DHT22;54576;52.020;5.536;2023-02-28T13:19:42;6.90;60.40
67777;DHT22;54576;52.020;5.536;2023-02-28T13:22:42;6.90;61.00
67777;DHT22;54576;52.020;5.536;2023-02-28T13:27:52;7.00;95.10
67777;DHT22;54576;52.020;5.536;2023-02-28T13:33:29;6.90;83.90
67777;DHT22;54576;52.020;5.536;2023-02-28T13:38:46;7.10;94.10
67777;DHT22;54576;52.020;5.536;2023-02-28T13:46:32;6.90;70.00
67777;DHT22;54576;52.020;5.536;2023-02-28T14:05:42;7.10;55.60
67777;DHT22;54576;52.020;5.536;2023-02-28T14:08:15;7.00;56.90
67777;DHT22;54576;52.020;5.536;2023-02-28T14:11:05;7.00;58.80
67777;DHT22;54576;52.020;5.536;2023-02-28T14:13:45;7.10;58.70
67777;DHT22;54576;52.020;5.536;2023-02-28T14:16:21;7.00;47.70
67777;DHT22;54576;52.020;5.536;2023-02-28T14:18:58;7.00;58.00
67777;DHT22;54576;52.020;5.536;2023-02-28T14:21:34;7.10;59.00
67777;DHT22;54576;52.020;5.536;2023-02-28T14:32:47;7.00;58.10
67777;DHT22;54576;52.020;5.536;2023-02-28T14:35:49;7.00;56.50
67777;DHT22;54576;52.020;5.536;2023-02-28T14:38:25;7.00;59.00
67777;DHT22;54576;52.020;5.536;2023-02-28T14:40:55;7.10;56.60
67777;DHT22;54576;52.020;5.536;2023-02-28T14:43:24;7.10;56.60
67777;DHT22;54576;52.020;5.536;2023-02-28T14:46:01;7.10;56.00
67777;DHT22;54576;52.020;5.536;2023-02-28T14:51:01;7.10;99.90
67777;DHT22;54576;52.020;5.536;2023-02-28T14:53:36;7.20;57.10
67777;DHT22;54576;52.020;5.536;2023-02-28T14:58:32;7.30;58.80
67777;DHT22;54576;52.020;5.536;2023-02-28T15:01:00;7.30;59.70
67777;DHT22;54576;52.020;5.536;2023-02-28T15:06:03;7.30;57.30
67777;DHT22;54576;52.020;5.536;2023-02-28T15:08:29;7.20;57.70
67777;DHT22;54576;52.020;5.536;2023-02-28T15:11:04;7.10;59.30
67777;DHT22;54576;52.020;5.536;2023-02-28T15:13:50;7.10;59.20
67777;DHT22;54576;52.020;5.536;2023-02-28T15:18:56;7.10;58.20
67777;DHT22;54576;52.020;5.536;2023-02-28T15:26:34;7.10;58.50
67777;DHT22;54576;52.020;5.536;2023-02-28T15:29:08;7.10;57.60
67777;DHT22;54576;52.020;5.536;2023-02-28T15:31:45;7.10;58.10
67777;DHT22;54576;52.020;5.536;2023-02-28T15:37:00;7.00;57.70
67777;DHT22;54576;52.020;5.536;2023-02-28T15:39:28;7.10;58.50
67777;DHT22;54576;52.020;5.536;2023-02-28T15:42:23;7.10;58.30
67777;DHT22;54576;52.020;5.536;2023-02-28T15:44:52;7.00;58.00
67777;DHT22;54576;52.020;5.536;2023-02-28T15:47:27;7.00;56.70
67777;DHT22;54576;52.020;5.536;2023-02-28T15:50:06;7.00;57.80
67777;DHT22;54576;52.020;5.536;2023-02-28T15:52:43;6.90;55.20
67777;DHT22;54576;52.020;5.536;2023-02-28T15:55:21;7.00;79.70
67777;DHT22;54576;52.020;5.536;2023-02-28T15:57:51;7.00;61.60
67777;DHT22;54576;52.020;5.536;2023-02-28T16:00:25;7.00;76.70
67777;DHT22;54576;52.020;5.536;2023-02-28T16:02:51;7.00;78.50
67777;DHT22;54576;52.020;5.536;2023-02-28T16:05:26;6.80;58.70
67777;DHT22;54576;52.020;5.536;2023-02-28T16:08:13;6.80;58.00
67777;DHT22;54576;52.020;5.536;2023-02-28T16:10:39;6.80;57.80
67777;DHT22;54576;52.020;5.536;2023-02-28T16:13:05;6.70;55.20
67777;DHT22;54576;52.020;5.536;2023-02-28T16:15:38;6.70;57.70
67777;DHT22;54576;52.020;5.536;2023-02-28T16:18:09;6.70;58.80
67777;DHT22;54576;52.020;5.536;2023-02-28T16:20:35;6.70;58.00
67777;DHT22;54576;52.020;5.536;2023-02-28T16:23:01;6.70;58.70
67777;DHT22;54576;52.020;5.536;2023-02-28T16:25:39;6.60;56.50
67777;DHT22;54576;52.020;5.536;2023-02-28T16:28:28;6.60;58.60
67777;DHT22;54576;52.020;5.536;2023-02-28T16:30:56;6.60;58.90
67777;DHT22;54576;52.020;5.536;2023-02-28T16:33:22;6.60;59.10
67777;DHT22;54576;52.020;5.536;2023-02-28T16:35:48;6.50;58.00
67777;DHT22;54576;52.020;5.536;2023-02-28T16:38:14;6.50;59.30
67777;DHT22;54576;52.020;5.536;2023-02-28T16:40:43;6.40;59.10
67777;DHT22;54576;52.020;5.536;2023-02-28T16:43:22;6.40;58.50
67777;DHT22;54576;52.020;5.536;2023-02-28T16:45:57;6.40;59.00
67777;DHT22;54576;52.020;5.536;2023-02-28T16:48:24;6.30;59.40
67777;DHT22;54576;52.020;5.536;2023-02-28T16:50:51;6.30;58.80
67777;DHT22;54576;52.020;5.536;2023-02-28T16:53:16;6.20;58.80
67777;DHT22;54576;52.020;5.536;2023-02-28T16:55:42;6.20;59.40
67777;DHT22;54576;52.020;5.536;2023-02-28T16:58:14;6.10;59.50
67777;DHT22;54576;52.020;5.536;2023-02-28T17:00:40;6.10;59.20
67777;DHT22;54576;52.020;5.536;2023-02-28T17:03:32;6.00;59.30
67777;DHT22;54576;52.020;5.536;2023-02-28T17:05:57;6.00;58.70
67777;DHT22;54576;52.020;5.536;2023-02-28T17:08:23;5.90;58.90
67777;DHT22;54576;52.020;5.536;2023-02-28T17:10:48;5.90;59.40
67777;DHT22;54576;52.020;5.536;2023-02-28T17:13:14;5.80;59.00
67777;DHT22;54576;52.020;5.536;2023-02-28T17:15:40;5.80;58.80
67777;DHT22;54576;52.020;5.536;2023-02-28T17:18:06;5.70;58.90
67777;DHT22;54576;52.020;5.536;2023-02-28T17:20:34;5.70;58.00
67777;DHT22;54576;52.020;5.536;2023-02-28T17:23:00;5.60;58.70
67777;DHT22;54576;52.020;5.536;2023-02-28T17:25:28;5.60;58.70
67777;DHT22;54576;52.020;5.536;2023-02-28T17:27:53;5.50;58.80
67777;DHT22;54576;52.020;5.536;2023-02-28T17:30:22;5.50;58.80
67777;DHT22;54576;52.020;5.536;2023-02-28T17:32:48;5.50;59.10
67777;DHT22;54576;52.020;5.536;2023-02-28T17:35:16;5.40;57.90
67777;DHT22;54576;52.020;5.536;2023-02-28T17:37:42;5.40;58.60
67777;DHT22;54576;52.020;5.536;2023-02-28T17:40:17;5.30;59.70
67777;DHT22;54576;52.020;5.536;2023-02-28T17:42:43;5.30;59.50
67777;DHT22;54576;52.020;5.536;2023-02-28T17:45:12;5.20;59.40
67777;DHT22;54576;52.020;5.536;2023-02-28T17:47:38;5.10;58.50
67777;DHT22;54576;52.020;5.536;2023-02-28T17:50:04;5.10;59.40
67777;DHT22;54576;52.020;5.536;2023-02-28T17:52:30;5.00;59.80
67777;DHT22;54576;52.020;5.536;2023-02-28T17:54:56;5.00;59.70
67777;DHT22;54576;52.020;5.536;2023-02-28T17:57:21;4.90;59.60
67777;DHT22;54576;52.020;5.536;2023-02-28T17:59:47;4.90;59.50
67777;DHT22;54576;52.020;5.536;2023-02-28T18:02:13;4.80;59.40
67777;DHT22;54576;52.020;5.536;2023-02-28T18:04:39;4.70;60.20
67777;DHT22;54576;52.020;5.536;2023-02-28T18:07:06;4.70;60.40
67777;DHT22;54576;52.020;5.536;2023-02-28T18:09:34;4.70;60.10
67777;DHT22;54576;52.020;5.536;2023-02-28T18:11:59;4.60;58.10
67777;DHT22;54576;52.020;5.536;2023-02-28T18:14:25;4.60;60.10
67777;DHT22;54576;52.020;5.536;2023-02-28T18:16:52;4.50;59.10
67777;DHT22;54576;52.020;5.536;2023-02-28T18:19:18;4.50;60.30
67777;DHT22;54576;52.020;5.536;2023-02-28T18:21:46;4.50;59.70
67777;DHT22;54576;52.020;5.536;2023-02-28T18:24:12;4.50;60.30
67777;DHT22;54576;52.020;5.536;2023-02-28T18:26:38;4.40;60.10
67777;DHT22;54576;52.020;5.536;2023-02-28T18:29:05;4.40;60.50
67777;DHT22;54576;52.020;5.536;2023-02-28T18:31:31;4.30;60.60
67777;DHT22;54576;52.020;5.536;2023-02-28T18:33:57;4.30;60.80
67777;DHT22;54576;52.020;5.536;2023-02-28T18:36:25;4.20;60.70
67777;DHT22;54576;52.020;5.536;2023-02-28T18:38:51;4.20;61.00
67777;DHT22;54576;52.020;5.536;2023-02-28T18:41:18;4.10;60.80